createdAt,value
2022-11-11T00:03:00.261Z,101680.16
2022-11-11T00:06:04.230Z,101687.91
2022-11-11T00:09:06.554Z,101687.87
2022-11-11T00:12:09.162Z,101686.09
2022-11-11T00:15:11.489Z,101688.66
2022-11-11T00:18:32.328Z,101684.31
2022-11-11T00:21:37.150Z,101686.03
2022-11-11T00:24:57.912Z,101689.50
2022-11-11T00:28:00.092Z,101686.06
2022-11-11T00:31:09.974Z,101687.72
2022-11-11T00:34:12.152Z,101685.97
2022-11-11T00:37:14.349Z,101683.28
2022-11-11T00:40:17.140Z,101689.41
2022-11-11T00:43:19.219Z,101696.44
2022-11-11T00:46:40.260Z,101698.19
2022-11-11T00:50:00.858Z,101698.19
2022-11-11T00:53:05.322Z,101701.78
2022-11-11T00:56:07.579Z,101694.72
2022-11-11T00:59:09.809Z,101686.12
2022-11-11T01:02:12.148Z,101679.09
2022-11-11T01:05:14.488Z,101685.34
2022-11-11T01:08:16.618Z,101684.59
2022-11-11T01:11:21.832Z,101683.78
2022-11-11T01:14:23.985Z,101690.84
2022-11-11T01:17:26.165Z,101691.75
2022-11-11T01:20:28.408Z,101684.81
2022-11-11T01:23:32.166Z,101692.59
2022-11-11T01:26:34.384Z,101677.87
2022-11-11T01:29:36.499Z,101687.47
2022-11-11T01:32:38.620Z,101680.47
2022-11-11T01:35:42.450Z,101685.72
2022-11-11T01:38:48.509Z,101676.22
2022-11-11T01:41:50.681Z,101662.34
2022-11-11T01:44:52.787Z,101678.84
2022-11-11T01:48:33.800Z,101675.44
2022-11-11T01:51:59.278Z,101676.31
2022-11-11T01:55:13.549Z,101670.25
2022-11-11T01:58:18.335Z,101668.47
2022-11-11T02:01:20.548Z,101672.81
2022-11-11T02:04:41.389Z,101660.56
2022-11-11T02:07:43.755Z,101663.16
2022-11-11T02:10:47.240Z,101660.53
2022-11-11T02:14:07.765Z,101657.88
2022-11-11T02:17:14.091Z,101662.22
2022-11-11T02:20:21.243Z,101658.78
2022-11-11T02:23:42.417Z,101651.78
2022-11-11T02:26:45.415Z,101659.63
2022-11-11T02:29:50.917Z,101658.78
2022-11-11T02:32:54.599Z,101667.50
2022-11-11T02:35:59.512Z,101668.41
2022-11-11T02:39:04.989Z,101674.50
2022-11-11T02:42:10.489Z,101681.53
2022-11-11T02:45:12.972Z,101669.34
2022-11-11T02:48:15.101Z,101669.44
2022-11-11T02:51:17.564Z,101670.31
2022-11-11T02:54:19.669Z,101679.03
2022-11-11T02:57:22.699Z,101672.94
2022-11-11T03:00:25.714Z,101684.25
2022-11-11T03:03:28.261Z,101693.00
2022-11-11T03:06:30.896Z,101687.78
2022-11-11T03:09:33.077Z,101685.19
2022-11-11T03:12:35.217Z,101699.06
2022-11-11T03:15:37.604Z,101699.09
2022-11-11T03:23:02.049Z,101699.97
2022-11-11T03:26:04.093Z,101718.31
2022-11-11T03:29:06.527Z,101709.56
2022-11-11T03:32:09.748Z,101718.31
2022-11-11T03:35:11.764Z,101718.31
2022-11-11T03:38:23.551Z,101722.72
2022-11-11T03:41:25.594Z,101720.97
2022-11-11T03:44:28.665Z,101725.34
2022-11-11T03:47:30.704Z,101727.09
2022-11-11T03:50:34.765Z,101732.31
2022-11-11T03:53:36.747Z,101726.25
2022-11-11T03:56:38.902Z,101736.72
2022-11-11T03:59:41.137Z,101734.94
2022-11-11T04:03:01.634Z,101736.72
2022-11-11T04:06:23.170Z,101734.13
2022-11-11T04:09:43.841Z,101729.81
2022-11-11T04:13:04.535Z,101732.44
2022-11-11T04:16:06.765Z,101735.03
2022-11-11T04:19:27.730Z,101737.66
2022-11-11T04:22:30.009Z,101740.28
2022-11-11T04:25:50.268Z,101746.38
2022-11-11T04:29:21.661Z,101753.34
2022-11-11T04:32:35.832Z,101751.59
2022-11-11T04:35:37.845Z,101756.81
2022-11-11T04:38:58.125Z,101745.50
2022-11-11T04:42:08.853Z,101746.38
2022-11-11T04:45:28.376Z,101743.78
2022-11-11T04:48:30.332Z,101747.28
2022-11-11T04:51:52.281Z,101749.03
2022-11-11T04:55:21.476Z,101762.06
2022-11-11T04:58:26.043Z,101759.47
2022-11-11T05:01:46.542Z,101761.19
2022-11-11T05:04:48.508Z,101759.47
2022-11-11T05:08:09.674Z,101758.56
2022-11-11T05:11:11.792Z,101753.38
2022-11-11T05:14:32.479Z,101757.72
2022-11-11T05:17:53.211Z,101762.06
2022-11-11T05:21:13.912Z,101763.81
2022-11-11T05:24:34.836Z,101767.31
2022-11-11T05:27:37.044Z,101775.16
2022-11-11T05:30:41.780Z,101783.88
2022-11-11T05:33:43.772Z,101794.31
2022-11-11T05:36:45.790Z,101791.72
2022-11-11T05:39:48.090Z,101800.41
2022-11-11T05:42:54.251Z,101794.31
2022-11-11T05:45:59.653Z,101797.81
2022-11-11T05:49:16.629Z,101794.34
2022-11-11T05:52:20.411Z,101810.88
2022-11-11T05:55:22.426Z,101810.88
2022-11-11T05:58:24.498Z,101816.97
2022-11-11T06:01:26.778Z,101816.09
2022-11-11T06:04:29.180Z,101825.66
2022-11-11T06:07:31.741Z,101833.50
2022-11-11T06:10:34.066Z,101837.81
2022-11-11T06:13:36.246Z,101841.31
2022-11-11T06:16:38.334Z,101839.59
2022-11-11T06:19:40.297Z,101848.28
2022-11-11T06:22:57.442Z,101854.37
2022-11-11T06:26:15.339Z,101847.41
2022-11-11T06:29:17.341Z,101856.13
2022-11-11T06:32:19.290Z,101852.62
2022-11-11T06:35:21.420Z,101853.53
2022-11-11T06:38:23.487Z,101844.78
2022-11-11T06:41:30.974Z,101843.06
2022-11-11T06:44:32.945Z,101845.66
2022-11-11T06:47:44.576Z,101844.78
2022-11-11T06:55:02.241Z,101845.66
2022-11-11T06:58:12.435Z,101849.97
2022-11-11T07:01:14.994Z,101849.97
2022-11-11T07:04:17.272Z,101852.56
2022-11-11T07:07:19.413Z,101843.81
2022-11-11T07:10:21.977Z,101843.78
2022-11-11T07:13:24.353Z,101848.97
2022-11-11T07:16:28.574Z,101847.22
2022-11-11T07:19:31.198Z,101855.88
2022-11-11T07:22:38.205Z,101849.69
2022-11-11T07:25:40.410Z,101849.66
2022-11-11T07:28:42.469Z,101860.03
2022-11-11T07:31:44.915Z,101868.53
2022-11-11T07:34:47.100Z,101871.94
2022-11-11T07:37:49.463Z,101864.84
2022-11-11T07:40:51.834Z,101867.28
2022-11-11T07:43:53.825Z,101870.81
2022-11-11T07:46:55.914Z,101869.84
2022-11-11T07:50:01.769Z,101863.63
2022-11-11T07:53:06.724Z,101860.84
2022-11-11T07:56:08.955Z,101862.28
2022-11-11T07:59:11.037Z,101865.41
2022-11-11T08:02:13.970Z,101865.19
2022-11-11T08:05:16.747Z,101856.13
2022-11-11T08:08:20.957Z,101849.81
2022-11-11T08:11:43.432Z,101861.88
2022-11-11T08:14:45.503Z,101863.47
2022-11-11T08:17:47.584Z,101867.66
2022-11-11T08:20:54.672Z,101876.97
2022-11-11T08:25:01.591Z,101885.50
2022-11-11T08:27:31.342Z,101881.19
2022-11-11T08:30:33.671Z,101889.72
2022-11-11T08:33:35.861Z,101888.00
2022-11-11T08:36:38.208Z,101895.50
2022-11-11T08:39:40.218Z,101895.19
2022-11-11T08:42:42.346Z,101899.47
2022-11-11T08:45:44.775Z,101898.97
2022-11-11T08:48:47.920Z,101893.75
2022-11-11T08:51:50.104Z,101907.41
2022-11-11T08:54:52.674Z,101895.09
2022-11-11T08:57:59.740Z,101906.19
2022-11-11T09:01:04.481Z,101904.47
2022-11-11T09:04:37.740Z,101909.25
2022-11-11T09:07:28.989Z,101911.69
2022-11-11T09:10:31.363Z,101908.72
2022-11-11T09:13:33.611Z,101907.03
2022-11-11T09:16:35.735Z,101909.03
2022-11-11T09:19:37.976Z,101904.22
2022-11-11T09:22:44.317Z,101904.37
2022-11-11T09:25:46.633Z,101901.72
2022-11-11T09:28:48.942Z,101914.81
2022-11-11T09:31:51.277Z,101910.63
2022-11-11T09:34:55.564Z,101907.38
2022-11-11T09:38:00.003Z,101904.66
2022-11-11T09:41:35.830Z,101911.31
2022-11-11T09:45:05.733Z,101911.03
2022-11-11T09:48:39.047Z,101902.09
2022-11-11T09:52:01.053Z,101905.59
2022-11-11T09:55:30.681Z,101896.06
2022-11-11T09:58:38.687Z,101897.19
2022-11-11T10:01:45.335Z,101895.25
2022-11-11T10:05:21.635Z,101880.69
2022-11-11T10:08:23.995Z,101877.25
2022-11-11T10:11:39.938Z,101880.22
2022-11-11T10:14:49.568Z,101868.56
2022-11-11T10:17:51.654Z,101872.97
2022-11-11T10:21:05.822Z,101866.25
2022-11-11T10:24:17.361Z,101864.75
2022-11-11T10:27:22.294Z,101861.25
2022-11-11T10:30:31.660Z,101865.47
2022-11-11T10:33:46.497Z,101870.66
2022-11-11T10:36:53.773Z,101859.63
2022-11-11T10:40:12.760Z,101860.81
2022-11-11T10:43:23.615Z,101848.47
2022-11-11T10:46:40.442Z,101852.62
2022-11-11T10:49:53.686Z,101851.25
2022-11-11T10:53:54.542Z,101852.81
2022-11-11T10:57:05.846Z,101847.81
2022-11-11T11:00:11.825Z,101845.88
2022-11-11T11:03:24.351Z,101841.28
2022-11-11T11:06:32.106Z,101838.19
2022-11-11T11:09:44.232Z,101827.72
2022-11-11T11:13:08.002Z,101835.38
2022-11-11T11:16:18.084Z,101823.84
2022-11-11T11:19:25.837Z,101821.88
2022-11-11T11:22:53.044Z,101820.66
2022-11-11T11:25:57.624Z,101818.19
2022-11-11T11:29:02.241Z,101805.47
2022-11-11T11:32:19.670Z,101806.69
2022-11-11T11:35:44.272Z,101817.94
2022-11-11T11:38:51.068Z,101803.78
2022-11-11T11:41:54.399Z,101807.78
2022-11-11T11:44:56.828Z,101801.81
2022-11-11T11:48:30.893Z,101799.94
2022-11-11T11:55:18.378Z,101794.28
2022-11-11T11:58:43.877Z,101795.44
2022-11-11T12:01:55.935Z,101789.53
2022-11-11T12:05:10.790Z,101794.75
2022-11-11T12:08:19.111Z,101787.69
2022-11-11T12:11:40.172Z,101789.84
2022-11-11T12:14:52.708Z,101796.00
2022-11-11T12:18:16.891Z,101786.78
2022-11-11T12:21:24.283Z,101783.88
2022-11-11T12:24:51.368Z,101777.75
2022-11-11T12:28:04.783Z,101775.34
2022-11-11T12:31:32.743Z,101770.41
2022-11-11T12:34:53.755Z,101771.22
2022-11-11T12:38:26.803Z,101785.47
2022-11-11T12:42:07.918Z,101782.19
2022-11-11T12:45:22.128Z,101781.16
2022-11-11T12:48:43.107Z,101761.38
2022-11-11T12:52:16.230Z,101767.34
2022-11-11T12:55:36.457Z,101759.72
2022-11-11T12:58:44.289Z,101765.91
2022-11-11T13:02:16.547Z,101771.56
2022-11-11T13:05:22.565Z,101759.78
2022-11-11T13:09:06.160Z,101760.62
2022-11-11T13:12:21.450Z,101757.56
2022-11-11T13:15:25.799Z,101754.00
2022-11-11T13:18:51.604Z,101753.50
2022-11-11T13:21:59.429Z,101752.09
2022-11-11T13:25:07.785Z,101757.56
2022-11-11T13:28:17.795Z,101759.56
2022-11-11T13:31:34.452Z,101753.53
2022-11-11T13:34:37.448Z,101757.41
2022-11-11T13:37:43.641Z,101763.34
2022-11-11T13:40:46.865Z,101767.62
2022-11-11T13:43:52.211Z,101772.47
2022-11-11T13:47:03.457Z,101774.66
2022-11-11T13:50:27.769Z,101768.66
2022-11-11T13:53:34.283Z,101762.88
2022-11-11T13:56:41.837Z,101761.94
2022-11-11T14:00:10.063Z,101769.03
2022-11-11T14:03:18.385Z,101749.22
2022-11-11T14:06:20.477Z,101755.75
2022-11-11T14:09:54.401Z,101758.78
2022-11-11T14:13:22.015Z,101767.03
2022-11-11T14:16:34.498Z,101782.53
2022-11-11T14:19:36.743Z,101768.75
2022-11-11T14:22:38.944Z,101770.31
2022-11-11T14:25:41.173Z,101764.28
2022-11-11T14:28:49.294Z,101760.41
2022-11-11T14:32:12.839Z,101752.97
2022-11-11T14:35:54.024Z,101759.72
2022-11-11T14:39:24.065Z,101747.12
2022-11-11T14:42:38.013Z,101742.69
2022-11-11T14:45:49.466Z,101744.19
2022-11-11T14:49:00.250Z,101733.22
2022-11-11T14:52:03.722Z,101745.09
2022-11-11T14:55:20.815Z,101743.66
2022-11-11T14:58:27.247Z,101736.97
2022-11-11T15:01:31.391Z,101742.53
2022-11-11T15:04:38.784Z,101743.06
2022-11-11T15:07:40.866Z,101745.22
2022-11-11T15:11:03.681Z,101747.19
2022-11-11T15:14:37.973Z,101748.78
2022-11-11T15:18:25.612Z,101757.47
2022-11-11T15:21:27.709Z,101755.63
2022-11-11T15:25:15.176Z,101759.72
2022-11-11T15:28:35.570Z,101746.25
2022-11-11T15:32:28.429Z,101744.38
2022-11-11T15:35:42.104Z,101751.09
2022-11-11T15:38:44.837Z,101757.66
2022-11-11T15:41:50.505Z,101752.69
2022-11-11T15:44:52.850Z,101744.34
2022-11-11T15:47:55.093Z,101746.25
2022-11-11T15:50:57.410Z,101738.53
2022-11-11T15:54:15.808Z,101726.34
2022-11-11T15:57:35.234Z,101727.12
2022-11-11T16:00:38.272Z,101725.78
2022-11-11T16:03:42.474Z,101724.53
2022-11-11T16:06:45.347Z,101725.78
2022-11-11T16:09:47.895Z,101716.44
2022-11-11T16:13:18.585Z,101718.50
2022-11-11T16:16:31.185Z,101727.69
2022-11-11T16:19:37.442Z,101729.88
2022-11-11T16:22:40.755Z,101726.28
2022-11-11T16:25:43.301Z,101726.44
2022-11-11T16:28:48.595Z,101729.38
2022-11-11T16:31:50.913Z,101735.94
2022-11-11T16:34:54.459Z,101749.50
2022-11-11T16:37:56.973Z,101756.84
2022-11-11T16:40:59.665Z,101757.19
2022-11-11T16:44:01.921Z,101753.97
2022-11-11T16:47:27.799Z,101751.59
2022-11-11T16:50:30.408Z,101768.53
2022-11-11T16:53:40.883Z,101763.44
2022-11-11T16:56:47.163Z,101777.66
2022-11-11T16:59:55.395Z,101768.97
2022-11-11T17:03:22.957Z,101780.47
2022-11-11T17:06:52.262Z,101772.66
2022-11-11T17:09:55.887Z,101769.31
2022-11-11T17:12:58.003Z,101771.63
2022-11-11T17:16:08.102Z,101765.19
2022-11-11T17:19:10.556Z,101754.53
2022-11-11T17:22:12.920Z,101759.91
2022-11-11T17:25:15.379Z,101749.41
2022-11-11T17:28:18.187Z,101755.63
2022-11-11T17:31:20.503Z,101766.44
2022-11-11T17:34:22.930Z,101764.03
2022-11-11T17:37:25.102Z,101764.28
2022-11-11T17:40:27.905Z,101760.13
2022-11-11T17:43:31.660Z,101761.31
2022-11-11T17:46:34.438Z,101778.25
2022-11-11T17:49:55.726Z,101773.13
2022-11-11T17:52:58.635Z,101772.53
2022-11-11T17:56:02.101Z,101777.09
2022-11-11T17:59:04.686Z,101774.56
2022-11-11T18:02:07.644Z,101764.97
2022-11-11T18:05:10.530Z,101764.31
2022-11-11T18:08:12.891Z,101757.22
2022-11-11T18:11:15.531Z,101765.34
2022-11-11T18:14:18.006Z,101774.19
2022-11-11T18:17:20.246Z,101745.75
2022-11-11T18:20:22.783Z,101778.94
2022-11-11T18:23:25.522Z,101780.94
2022-11-11T18:26:28.051Z,101786.50
2022-11-11T18:29:31.331Z,101781.44
2022-11-11T18:32:34.013Z,101770.91
2022-11-11T18:35:36.708Z,101767.38
2022-11-11T18:38:39.652Z,101766.59
2022-11-11T18:41:42.349Z,101759.59
2022-11-11T18:44:44.771Z,101763.03
2022-11-11T18:47:50.815Z,101758.75
2022-11-11T18:50:55.271Z,101764.12
2022-11-11T18:53:58.540Z,101765.06
2022-11-11T18:57:03.466Z,101768.63
2022-11-11T19:00:06.519Z,101762.59
2022-11-11T19:03:10.232Z,101760.94
2022-11-11T19:06:12.858Z,101764.47
2022-11-11T19:09:15.708Z,101762.81
2022-11-11T19:12:18.482Z,101776.84
2022-11-11T19:15:20.963Z,101772.50
2022-11-11T19:18:24.082Z,101771.56
2022-11-11T19:21:29.798Z,101782.03
2022-11-11T19:24:34.027Z,101772.31
2022-11-11T19:27:36.337Z,101769.72
2022-11-11T19:30:38.897Z,101771.50
2022-11-11T19:33:42.458Z,101770.66
2022-11-11T19:36:44.864Z,101763.59
2022-11-11T19:39:47.451Z,101761.84
2022-11-11T19:42:50.662Z,101764.47
2022-11-11T19:45:53.200Z,101760.00
2022-11-11T19:48:58.548Z,101762.63
2022-11-11T19:52:01.262Z,101774.84
2022-11-11T19:55:04.017Z,101775.66
2022-11-11T19:58:06.711Z,101783.56
2022-11-11T20:01:11.654Z,101769.53
2022-11-11T20:04:14.161Z,101773.03
2022-11-11T20:07:17.252Z,101769.53
2022-11-11T20:10:20.508Z,101777.50
2022-11-11T20:13:23.193Z,101774.00
2022-11-11T20:16:26.305Z,101776.66
2022-11-11T20:19:28.562Z,101790.66
2022-11-11T20:22:32.090Z,101790.66
2022-11-11T20:25:38.540Z,101795.97
2022-11-11T20:28:42.028Z,101793.34
2022-11-11T20:31:44.394Z,101800.38
2022-11-11T20:34:46.669Z,101781.19
2022-11-11T20:37:49.184Z,101782.97
2022-11-11T20:41:04.899Z,101779.53
2022-11-11T20:44:07.832Z,101779.56
2022-11-11T20:47:10.224Z,101771.69
2022-11-11T20:50:12.947Z,101775.25
2022-11-11T20:53:15.699Z,101780.66
2022-11-11T20:56:22.413Z,101770.22
2022-11-11T20:59:27.074Z,101773.78
2022-11-11T21:02:29.689Z,101765.06
2022-11-11T21:05:31.990Z,101772.13
2022-11-11T21:08:37.092Z,101770.41
2022-11-11T21:11:40.251Z,101770.47
2022-11-11T21:14:42.519Z,101767.94
2022-11-11T21:17:44.819Z,101765.44
2022-11-11T21:20:47.608Z,101767.28
2022-11-11T21:23:54.785Z,101761.31
2022-11-11T21:26:58.306Z,101765.84
2022-11-11T21:30:00.584Z,101766.00
2022-11-11T21:33:07.809Z,101765.19
2022-11-11T21:36:13.363Z,101760.03
2022-11-11T21:39:15.851Z,101765.34
2022-11-11T21:42:18.507Z,101768.03
2022-11-11T21:45:20.772Z,101755.06
2022-11-11T21:48:27.030Z,101763.03
2022-11-11T21:51:31.777Z,101758.84
2022-11-11T21:54:33.995Z,101753.75
2022-11-11T21:57:36.524Z,101750.41
2022-11-11T22:00:38.768Z,101735.69
2022-11-11T22:03:42.784Z,101746.25
2022-11-11T22:06:45.083Z,101744.63
2022-11-11T22:09:47.274Z,101742.91
2022-11-11T22:12:49.427Z,101735.06
2022-11-11T22:15:59.169Z,101739.44
2022-11-11T22:19:07.018Z,101747.31
2022-11-11T22:22:09.359Z,101744.75
2022-11-11T22:25:11.475Z,101744.78
2022-11-11T22:28:13.646Z,101740.53
2022-11-11T22:31:23.978Z,101744.06
2022-11-11T22:34:26.188Z,101744.97
2022-11-11T22:37:28.446Z,101745.81
2022-11-11T22:40:30.741Z,101742.37
2022-11-11T22:43:58.553Z,101734.63
2022-11-11T22:47:00.084Z,101736.34
2022-11-11T22:50:02.330Z,101732.88
2022-11-11T22:53:04.509Z,101733.78
2022-11-11T22:56:09.329Z,101735.50
2022-11-11T22:59:11.581Z,101736.44
2022-11-11T23:02:14.074Z,101723.38
2022-11-11T23:05:16.754Z,101724.31
2022-11-11T23:08:18.998Z,101721.72
2022-11-11T23:11:23.921Z,101722.69
2022-11-11T23:14:26.071Z,101727.09
2022-11-11T23:17:28.213Z,101720.09
2022-11-11T23:20:30.383Z,101725.41
2022-11-11T23:23:33.446Z,101714.91
2022-11-11T23:26:35.688Z,101720.22
2022-11-11T23:29:37.930Z,101727.28
2022-11-11T23:32:40.245Z,101718.63
2022-11-11T23:35:42.505Z,101720.38
2022-11-11T23:38:44.918Z,101715.19
2022-11-11T23:41:47.543Z,101714.31
2022-11-11T23:44:49.727Z,101715.19
2022-11-11T23:47:51.961Z,101707.31
2022-11-11T23:50:54.692Z,101709.97
2022-11-11T23:53:56.999Z,101705.63
2022-11-11T23:56:59.240Z,101702.97
